Time,TemperatureF,DewpointF,PressureIn,WindDirection,WindDirectionDegrees,WindSpeedMPH,WindSpeedGustMPH,Humidity,HourlyPrecipIn,Conditions,Clouds,dailyrainin,SoftwareType,DateUTC
2013-04-02 00:23:00,32.0,17.0,-100.00,WNW,289,2.0,4.0,54,0.00,,,0.00,,2013-04-02 04:23:00,
2013-04-02 00:33:00,32.0,17.0,-100.00,WNW,289,2.0,4.0,54,0.00,,,0.00,,2013-04-02 04:33:00,
2013-04-02 00:43:00,32.0,17.0,-100.00,WNW,289,2.0,4.0,54,0.00,,,0.00,,2013-04-02 04:43:00,
2013-04-02 00:53:00,32.0,17.0,-100.00,WNW,289,2.0,4.0,54,0.00,,,0.00,,2013-04-02 04:53:00,
2013-04-02 01:22:00,31.0,16.0,-100.00,West,269,2.0,5.0,54,0.00,,,0.00,,2013-04-02 05:22:00,
2013-04-02 01:32:00,31.0,16.0,-100.00,West,269,2.0,5.0,54,0.00,,,0.00,,2013-04-02 05:32:00,
2013-04-02 01:43:00,31.0,16.0,-100.00,West,269,2.0,5.0,54,0.00,,,0.00,,2013-04-02 05:43:00,
2013-04-02 01:52:00,31.0,16.0,-100.00,West,269,2.0,5.0,54,0.00,,,0.00,,2013-04-02 05:52:00,
2013-04-02 02:22:00,31.0,16.0,-100.00,NW,307,3.0,5.0,54,0.00,,,0.00,,2013-04-02 06:22:00,
2013-04-02 02:32:00,31.0,16.0,-100.00,NW,307,3.0,5.0,54,0.00,,,0.00,,2013-04-02 06:32:00,
2013-04-02 02:42:00,31.0,16.0,-100.00,NW,307,3.0,5.0,54,0.00,,,0.00,,2013-04-02 06:42:00,
2013-04-02 02:52:00,31.0,16.0,-100.00,NW,307,3.0,5.0,54,0.00,,,0.00,,2013-04-02 06:52:00,
2013-04-02 03:22:00,31.0,16.0,-100.00,NW,306,3.0,6.0,54,0.00,,,0.00,,2013-04-02 07:22:00,
2013-04-02 03:32:00,31.0,16.0,-100.00,NW,306,3.0,6.0,54,0.00,,,0.00,,2013-04-02 07:32:00,
2013-04-02 03:43:00,31.0,16.0,-100.00,NW,306,3.0,6.0,54,0.00,,,0.00,,2013-04-02 07:43:00,
2013-04-02 03:52:00,31.0,16.0,-100.00,NW,306,3.0,6.0,54,0.00,,,0.00,,2013-04-02 07:52:00,
2013-04-02 04:22:00,28.0,16.0,-100.00,West,274,1.0,4.0,59,0.00,,,0.00,,2013-04-02 08:22:00,
2013-04-02 04:32:00,28.0,16.0,-100.00,West,274,1.0,4.0,59,0.00,,,0.00,,2013-04-02 08:32:00,
2013-04-02 04:42:00,28.0,16.0,-100.00,West,274,1.0,4.0,59,0.00,,,0.00,,2013-04-02 08:42:00,
2013-04-02 04:52:00,28.0,16.0,-100.00,West,274,1.0,4.0,59,0.00,,,0.00,,2013-04-02 08:52:00,
2013-04-02 05:22:00,27.0,16.0,-100.00,West,268,0.0,2.0,62,0.00,,,0.00,,2013-04-02 09:22:00,
2013-04-02 05:33:00,27.0,16.0,-100.00,West,268,0.0,2.0,62,0.00,,,0.00,,2013-04-02 09:33:00,
2013-04-02 05:43:00,27.0,16.0,-100.00,West,268,0.0,2.0,62,0.00,,,0.00,,2013-04-02 09:43:00,
2013-04-02 05:52:00,27.0,16.0,-100.00,West,268,0.0,2.0,62,0.00,,,0.00,,2013-04-02 09:52:00,
2013-04-02 06:24:00,26.0,16.0,-100.00,West,259,0.0,2.0,65,0.00,,,0.00,,2013-04-02 10:24:00,
2013-04-02 06:33:00,26.0,16.0,-100.00,West,259,0.0,2.0,65,0.00,,,0.00,,2013-04-02 10:33:00,
2013-04-02 06:42:00,26.0,16.0,-100.00,West,259,0.0,2.0,65,0.00,,,0.00,,2013-04-02 10:42:00,
2013-04-02 06:52:00,26.0,16.0,-100.00,West,259,0.0,2.0,65,0.00,,,0.00,,2013-04-02 10:52:00,
2013-04-02 08:23:00,27.0,18.0,-100.00,WSW,237,0.0,0.0,68,-99.99,,,0.00,,2013-04-02 12:23:00,
2013-04-02 08:32:00,27.0,18.0,-100.00,WSW,237,0.0,0.0,68,-99.99,,,0.00,,2013-04-02 12:32:00,
2013-04-02 08:42:00,27.0,18.0,-100.00,WSW,237,0.0,0.0,68,-99.99,,,0.00,,2013-04-02 12:42:00,
2013-04-02 08:52:00,27.0,18.0,-100.00,WSW,237,0.0,0.0,68,-99.99,,,0.00,,2013-04-02 12:52:00,
2013-04-02 09:23:00,33.0,20.0,-100.00,West,270,3.0,5.0,58,0.00,,,0.00,,2013-04-02 13:23:00,
2013-04-02 09:33:00,33.0,20.0,-100.00,West,270,3.0,5.0,58,0.00,,,0.00,,2013-04-02 13:33:00,
2013-04-02 09:42:00,33.0,20.0,-100.00,West,270,3.0,5.0,58,0.00,,,0.00,,2013-04-02 13:42:00,
2013-04-02 09:52:00,33.0,20.0,-100.00,West,270,3.0,5.0,58,0.00,,,0.00,,2013-04-02 13:52:00,
2013-04-02 10:23:00,37.0,20.0,-100.00,WSW,239,4.0,6.0,50,0.00,,,0.00,,2013-04-02 14:23:00,
2013-04-02 10:33:00,37.0,20.0,-100.00,WSW,239,4.0,6.0,50,0.00,,,0.00,,2013-04-02 14:33:00,
2013-04-02 10:42:00,37.0,20.0,-100.00,WSW,239,4.0,6.0,50,0.00,,,0.00,,2013-04-02 14:42:00,
2013-04-02 10:52:00,37.0,20.0,-100.00,WSW,239,4.0,6.0,50,0.00,,,0.00,,2013-04-02 14:52:00,
2013-04-02 11:23:00,39.0,17.0,-100.00,WNW,292,5.0,10.0,40,0.00,,,0.00,,2013-04-02 15:23:00,
2013-04-02 11:33:00,39.0,17.0,-100.00,WNW,292,5.0,10.0,40,0.00,,,0.00,,2013-04-02 15:33:00,
2013-04-02 11:43:00,39.0,17.0,-100.00,WNW,292,5.0,10.0,40,0.00,,,0.00,,2013-04-02 15:43:00,
2013-04-02 11:55:00,39.0,17.0,-100.00,WNW,292,5.0,10.0,40,0.00,,,0.00,,2013-04-02 15:55:00,
2013-04-02 12:25:00,41.0,16.0,-100.00,NW,316,4.0,13.0,36,0.00,,,0.00,,2013-04-02 16:25:00,
2013-04-02 12:38:00,41.0,16.0,-100.00,NW,316,4.0,13.0,36,0.00,,,0.00,,2013-04-02 16:38:00,
2013-04-02 12:44:00,41.0,16.0,-100.00,NW,316,4.0,13.0,36,0.00,,,0.00,,2013-04-02 16:44:00,
2013-04-02 12:53:00,41.0,16.0,-100.00,NW,316,4.0,13.0,36,0.00,,,0.00,,2013-04-02 16:53:00,
2013-04-02 13:25:00,45.0,15.0,-100.00,NW,308,5.0,14.0,29,0.00,,,-99.99,,2013-04-02 17:25:00,
2013-04-02 13:35:00,45.0,15.0,-100.00,NW,308,5.0,14.0,29,0.00,,,-99.99,,2013-04-02 17:35:00,
2013-04-02 13:43:00,45.0,15.0,-100.00,NW,308,5.0,14.0,29,0.00,,,-99.99,,2013-04-02 17:43:00,
2013-04-02 13:54:00,45.0,15.0,-100.00,NW,308,5.0,14.0,29,0.00,,,-99.99,,2013-04-02 17:54:00,
2013-04-02 14:23:00,45.0,13.0,-100.00,NW,309,5.0,13.0,27,0.00,,,0.00,,2013-04-02 18:23:00,
2013-04-02 14:35:00,45.0,13.0,-100.00,NW,309,5.0,13.0,27,0.00,,,0.00,,2013-04-02 18:35:00,
2013-04-02 14:43:00,45.0,13.0,-100.00,NW,309,5.0,13.0,27,0.00,,,0.00,,2013-04-02 18:43:00,
2013-04-02 14:54:00,45.0,13.0,-100.00,NW,309,5.0,13.0,27,0.00,,,0.00,,2013-04-02 18:54:00,
2013-04-02 15:23:00,47.0,12.0,-100.00,NW,312,6.0,14.0,24,0.00,,,0.00,,2013-04-02 19:23:00,
2013-04-02 15:34:00,47.0,12.0,-100.00,NW,312,6.0,14.0,24,0.00,,,0.00,,2013-04-02 19:34:00,
2013-04-02 15:45:00,47.0,12.0,-100.00,NW,312,6.0,14.0,24,0.00,,,0.00,,2013-04-02 19:45:00,
2013-04-02 15:53:00,47.0,12.0,-100.00,NW,312,6.0,14.0,24,0.00,,,0.00,,2013-04-02 19:53:00,
2013-04-02 16:23:00,47.0,11.0,-100.00,WNW,290,6.0,15.0,23,0.00,,,0.00,,2013-04-02 20:23:00,
2013-04-02 16:34:00,47.0,11.0,-100.00,WNW,290,6.0,15.0,23,0.00,,,0.00,,2013-04-02 20:34:00,
2013-04-02 16:44:00,47.0,11.0,-100.00,WNW,290,6.0,15.0,23,0.00,,,0.00,,2013-04-02 20:44:00,
2013-04-02 16:53:00,47.0,11.0,-100.00,WNW,290,6.0,15.0,23,0.00,,,0.00,,2013-04-02 20:53:00,
2013-04-02 17:23:00,48.0,13.0,-100.00,WNW,284,5.0,17.0,24,0.00,,,0.00,,2013-04-02 21:23:00,
2013-04-02 17:35:00,48.0,13.0,-100.00,WNW,284,5.0,17.0,24,0.00,,,0.00,,2013-04-02 21:35:00,
2013-04-02 17:44:00,48.0,13.0,-100.00,WNW,284,5.0,17.0,24,0.00,,,0.00,,2013-04-02 21:44:00,
2013-04-02 17:55:00,48.0,13.0,-100.00,WNW,284,5.0,17.0,24,0.00,,,0.00,,2013-04-02 21:55:00,
2013-04-02 18:25:00,48.0,13.0,-100.00,NW,316,6.0,14.0,24,0.00,,,0.00,,2013-04-02 22:25:00,
2013-04-02 18:33:00,48.0,13.0,-100.00,NW,316,6.0,14.0,24,0.00,,,0.00,,2013-04-02 22:33:00,
2013-04-02 18:44:00,48.0,13.0,-100.00,NW,316,6.0,14.0,24,0.00,,,0.00,,2013-04-02 22:44:00,
2013-04-02 18:53:00,48.0,13.0,-100.00,NW,316,6.0,14.0,24,0.00,,,0.00,,2013-04-02 22:53:00,
2013-04-02 19:24:00,46.0,11.0,-100.00,WNW,303,6.0,12.0,24,0.00,,,0.00,,2013-04-02 23:24:00,
2013-04-02 19:35:00,46.0,11.0,-100.00,WNW,303,6.0,12.0,24,0.00,,,0.00,,2013-04-02 23:35:00,
2013-04-02 19:43:00,46.0,11.0,-100.00,WNW,303,6.0,12.0,24,0.00,,,0.00,,2013-04-02 23:43:00,
2013-04-02 19:53:00,46.0,11.0,-100.00,WNW,303,6.0,12.0,24,0.00,,,0.00,,2013-04-02 23:53:00,
2013-04-02 20:25:00,42.0,10.0,-100.00,NW,314,5.0,13.0,27,0.00,,,0.00,,2013-04-03 00:25:00,
2013-04-02 20:34:00,42.0,10.0,-100.00,NW,314,5.0,13.0,27,0.00,,,0.00,,2013-04-03 00:34:00,
2013-04-02 20:47:00,42.0,10.0,-100.00,NW,314,5.0,13.0,27,0.00,,,0.00,,2013-04-03 00:47:00,
2013-04-02 20:53:00,42.0,10.0,-100.00,NW,314,5.0,13.0,27,0.00,,,0.00,,2013-04-03 00:53:00,
2013-04-02 21:23:00,39.0,12.0,-100.00,NW,314,3.0,10.0,32,0.00,,,0.00,,2013-04-03 01:23:00,
2013-04-02 21:33:00,39.0,12.0,-100.00,NW,314,3.0,10.0,32,0.00,,,0.00,,2013-04-03 01:33:00,
2013-04-02 21:42:00,39.0,12.0,-100.00,NW,314,3.0,10.0,32,0.00,,,0.00,,2013-04-03 01:42:00,
2013-04-02 21:53:00,39.0,12.0,-100.00,NW,314,3.0,10.0,32,0.00,,,0.00,,2013-04-03 01:53:00,
2013-04-02 22:25:00,37.0,11.0,-100.00,NW,311,2.0,6.0,33,0.00,,,0.00,,2013-04-03 02:25:00,
2013-04-02 22:34:00,37.0,11.0,-100.00,NW,311,2.0,6.0,33,0.00,,,0.00,,2013-04-03 02:34:00,
2013-04-02 22:44:00,37.0,11.0,-100.00,NW,311,2.0,6.0,33,0.00,,,0.00,,2013-04-03 02:44:00,
2013-04-02 22:52:00,37.0,11.0,-100.00,NW,311,2.0,6.0,33,0.00,,,0.00,,2013-04-03 02:52:00,
2013-04-02 23:23:00,36.0,12.0,-100.00,NNW,337,3.0,6.0,36,0.00,,,0.00,,2013-04-03 03:23:00,
2013-04-02 23:38:00,36.0,12.0,-100.00,NNW,337,3.0,6.0,36,0.00,,,0.00,,2013-04-03 03:38:00,
2013-04-02 23:44:00,36.0,12.0,-100.00,NNW,337,3.0,6.0,36,0.00,,,0.00,,2013-04-03 03:44:00,
2013-04-02 23:53:00,36.0,12.0,-100.00,NNW,337,3.0,6.0,36,0.00,,,0.00,,2013-04-03 03:53:00,